Zemst, Belgium
Current Conditions -  °F | °C
As of 3:50 AM on Tuesday 23 Dec 2014 (Local Time) from EBBR Reporting Station
Broken Clouds Broken Clouds  
Wind Chill: 11°   Ceiling: 2500
Heat Index: 11°   Visibility: 6mi
Dew Point:   Wind: 16mph
Humidity: 76%   Direction: 240°WSW
Pressure: 30.12"   Gusts: 28mph
Location:  50.98°N, 4.46°E
Report Text: EBBR 230250Z 24014G24KT 9999 BKN025 11/07 Q1020 NOSIG
Loading
Personal Weather Stations






























Interactive Weather Map New forecast layout! Learn more

10-Day Weather Forecast

Advertisements
Track Severe Weather on mobile